createdAt,value
2018-10-04T00:00:32.665Z,102250.66
2018-10-04T00:03:01.202Z,102252.02
2018-10-04T00:05:29.706Z,102249.81
2018-10-04T00:07:58.219Z,102241.96
2018-10-04T00:10:26.729Z,102244.17
2018-10-04T00:12:55.259Z,102242.67
2018-10-04T00:15:23.770Z,102245.91
2018-10-04T00:17:52.325Z,102240.80
2018-10-04T00:20:20.821Z,102241.30
2018-10-04T00:22:49.351Z,102248.13
2018-10-04T00:25:17.870Z,102247.28
2018-10-04T00:27:46.410Z,102241.45
2018-10-04T00:30:14.917Z,102237.36
2018-10-04T00:32:43.450Z,102237.88
2018-10-04T00:35:11.965Z,102228.50
2018-10-04T00:37:40.489Z,102228.48
2018-10-04T00:40:09.010Z,102233.75
2018-10-04T00:42:37.537Z,102235.77
2018-10-04T00:45:06.146Z,102235.95
2018-10-04T00:47:34.734Z,102235.43
2018-10-04T00:50:03.237Z,102224.36
2018-10-04T00:52:31.765Z,102237.48
2018-10-04T00:55:00.276Z,102233.54
2018-10-04T00:57:28.799Z,102234.91
2018-10-04T00:59:57.301Z,102235.41
2018-10-04T01:02:25.844Z,102235.92
2018-10-04T01:04:54.350Z,102233.52
2018-10-04T01:07:22.864Z,102226.51
2018-10-04T01:09:51.376Z,102216.95
2018-10-04T01:12:19.902Z,102224.08
2018-10-04T01:14:48.436Z,102219.13
2018-10-04T01:17:16.970Z,102225.92
2018-10-04T01:19:45.516Z,102224.22
2018-10-04T01:22:14.051Z,102229.33
2018-10-04T01:24:43.413Z,102225.38
2018-10-04T01:27:11.919Z,102226.75
2018-10-04T01:29:40.433Z,102221.98
2018-10-04T01:32:08.953Z,102222.32
2018-10-04T01:34:37.518Z,102221.28
2018-10-04T01:37:06.038Z,102223.16
2018-10-04T01:39:34.593Z,102213.75
2018-10-04T01:42:03.102Z,102208.98
2018-10-04T01:44:31.658Z,102215.09
2018-10-04T01:47:00.156Z,102217.48
2018-10-04T01:49:28.842Z,102211.18
2018-10-04T01:51:57.370Z,102210.33
2018-10-04T01:54:25.895Z,102212.55
2018-10-04T01:56:54.404Z,102212.03
2018-10-04T01:59:22.929Z,102207.09
2018-10-04T02:01:51.438Z,102211.70
2018-10-04T02:04:19.981Z,102207.94
2018-10-04T02:06:48.579Z,102205.88
2018-10-04T02:09:17.166Z,102201.78
2018-10-04T02:11:45.853Z,102198.20
2018-10-04T02:14:14.476Z,102201.11
2018-10-04T02:16:42.986Z,102203.13
2018-10-04T02:19:11.506Z,102199.55
2018-10-04T02:21:40.018Z,102202.45
2018-10-04T02:24:08.546Z,102201.73
2018-10-04T02:26:37.054Z,102203.78
2018-10-04T02:29:05.716Z,102205.80
2018-10-04T02:31:34.499Z,102207.34
2018-10-04T02:34:03.091Z,102200.33
2018-10-04T02:36:31.777Z,102208.16
2018-10-04T02:39:00.319Z,102208.16
2018-10-04T02:41:28.839Z,102204.73
2018-10-04T02:43:57.366Z,102207.62
2018-10-04T02:46:25.870Z,102199.97
2018-10-04T02:48:54.487Z,102202.31
2018-10-04T02:51:22.938Z,102203.34
2018-10-04T02:53:51.466Z,102193.47
2018-10-04T02:56:55.683Z,102194.97
2018-10-04T02:59:25.433Z,102193.61
2018-10-04T03:01:54.053Z,102191.05
2018-10-04T03:04:22.672Z,102186.12
2018-10-04T03:06:51.195Z,102192.08
2018-10-04T03:09:20.349Z,102188.30
2018-10-04T03:11:48.855Z,102191.68
2018-10-04T03:14:17.401Z,102191.34
2018-10-04T03:16:45.900Z,102192.36
2018-10-04T03:19:14.417Z,102196.96
2018-10-04T03:21:42.900Z,102199.69
2018-10-04T03:24:11.447Z,102202.89
2018-10-04T03:26:39.961Z,102203.77
2018-10-04T03:29:08.487Z,102199.31
2018-10-04T03:31:36.978Z,102210.07
2018-10-04T03:34:05.530Z,102209.22
2018-10-04T03:36:34.028Z,102204.25
2018-10-04T03:39:02.597Z,102211.57
2018-10-04T03:41:31.101Z,102205.61
2018-10-04T03:43:59.630Z,102205.13
2018-10-04T03:46:28.131Z,102201.90
2018-10-04T03:48:56.651Z,102199.69
2018-10-04T03:51:25.157Z,102191.66
2018-10-04T03:53:53.703Z,102192.16
2018-10-04T03:56:22.218Z,102193.84
2018-10-04T03:58:50.734Z,102189.08
2018-10-04T04:01:19.269Z,102183.77
2018-10-04T04:03:47.810Z,102189.05
2018-10-04T04:06:16.337Z,102187.69
2018-10-04T04:08:44.844Z,102192.63
2018-10-04T04:11:13.383Z,102182.74
2018-10-04T04:13:41.883Z,102186.69
2018-10-04T04:16:10.401Z,102193.70
2018-10-04T04:18:38.927Z,102196.08
2018-10-04T04:21:07.481Z,102192.70
2018-10-04T04:23:42.110Z,102198.69
2018-10-04T04:26:10.641Z,102198.18
2018-10-04T04:28:39.144Z,102194.94
2018-10-04T04:31:07.666Z,102197.87
2018-10-04T04:33:36.240Z,102199.23
2018-10-04T04:36:04.754Z,102203.14
2018-10-04T04:38:33.240Z,102196.84
2018-10-04T04:41:01.865Z,102204.50
2018-10-04T04:43:30.290Z,102194.97
2018-10-04T04:45:58.814Z,102193.13
2018-10-04T04:48:27.315Z,102199.05
2018-10-04T04:50:56.038Z,102202.16
2018-10-04T04:53:31.374Z,102207.60
2018-10-04T04:55:59.900Z,102208.59
2018-10-04T04:58:28.390Z,102216.28
2018-10-04T05:00:56.957Z,102216.77
2018-10-04T05:03:25.451Z,102220.37
2018-10-04T05:05:53.973Z,102221.22
2018-10-04T05:08:22.473Z,102221.91
2018-10-04T05:10:51.000Z,102219.34
2018-10-04T05:13:19.539Z,102215.77
2018-10-04T05:15:48.088Z,102218.33
2018-10-04T05:18:16.592Z,102214.95
2018-10-04T05:20:45.131Z,102213.92
2018-10-04T05:23:13.660Z,102219.71
2018-10-04T05:25:42.193Z,102211.54
2018-10-04T05:28:10.770Z,102217.84
2018-10-04T05:30:39.263Z,102218.69
2018-10-04T05:33:07.835Z,102223.66
2018-10-04T05:35:36.349Z,102229.45
2018-10-04T05:38:04.875Z,102229.65
2018-10-04T05:40:33.374Z,102220.11
2018-10-04T05:43:01.888Z,102223.85
2018-10-04T05:45:30.446Z,102229.50
2018-10-04T05:47:58.955Z,102227.48
2018-10-04T05:50:27.499Z,102225.81
2018-10-04T05:52:56.045Z,102235.00
2018-10-04T05:55:24.559Z,102233.84
2018-10-04T05:57:53.082Z,102236.05
2018-10-04T06:00:32.652Z,102234.69
2018-10-04T06:03:01.186Z,102227.36
2018-10-04T06:05:36.604Z,102231.45
2018-10-04T06:08:05.226Z,102230.09
2018-10-04T06:10:34.333Z,102228.21
2018-10-04T06:13:02.850Z,102221.91
2018-10-04T06:15:31.712Z,102228.27
2018-10-04T06:18:00.211Z,102227.06
2018-10-04T06:20:30.632Z,102232.20
2018-10-04T06:22:59.161Z,102238.70
2018-10-04T06:25:27.668Z,102240.41
2018-10-04T06:27:56.198Z,102242.62
2018-10-04T06:30:24.697Z,102244.34
2018-10-04T06:32:53.229Z,102247.41
2018-10-04T06:35:21.810Z,102249.63
2018-10-04T06:37:50.321Z,102250.98
2018-10-04T06:40:18.877Z,102254.23
2018-10-04T06:42:47.411Z,102256.44
2018-10-04T06:45:15.905Z,102261.06
2018-10-04T06:47:44.415Z,102259.90
2018-10-04T06:50:12.962Z,102254.98
2018-10-04T06:52:41.487Z,102258.91
2018-10-04T06:55:09.970Z,102267.65
2018-10-04T06:57:38.539Z,102264.48
2018-10-04T07:00:07.114Z,102265.70
2018-10-04T07:02:35.634Z,102266.22
2018-10-04T07:05:04.170Z,102263.03
2018-10-04T07:07:32.693Z,102261.50
2018-10-04T07:10:01.247Z,102267.16
2018-10-04T07:12:29.761Z,102264.78
2018-10-04T07:14:58.265Z,102263.80
2018-10-04T07:17:26.778Z,102267.72
2018-10-04T07:19:55.277Z,102266.73
2018-10-04T07:22:23.799Z,102261.47
2018-10-04T07:24:52.307Z,102273.07
2018-10-04T07:27:20.849Z,102264.22
2018-10-04T07:29:49.388Z,102271.75
2018-10-04T07:32:17.902Z,102272.94
2018-10-04T07:34:46.567Z,102269.41
2018-10-04T07:37:15.058Z,102267.19
2018-10-04T07:39:43.595Z,102265.85
2018-10-04T07:42:12.212Z,102269.25
2018-10-04T07:44:40.688Z,102274.38
2018-10-04T07:47:09.202Z,102273.71
2018-10-04T07:49:37.733Z,102270.30
2018-10-04T07:52:06.262Z,102268.58
2018-10-04T07:54:34.790Z,102273.86
2018-10-04T07:57:03.308Z,102278.09
2018-10-04T07:59:31.839Z,102284.08
2018-10-04T08:02:00.358Z,102285.10
2018-10-04T08:04:28.890Z,102286.65
2018-10-04T08:06:57.421Z,102282.21
2018-10-04T08:09:25.944Z,102284.59
2018-10-04T08:11:54.441Z,102288.17
2018-10-04T08:14:22.969Z,102284.58
2018-10-04T08:16:51.464Z,102285.27
2018-10-04T08:19:19.993Z,102289.36
2018-10-04T08:21:48.509Z,102296.89
2018-10-04T08:24:17.039Z,102297.05
2018-10-04T08:26:45.556Z,102292.27
2018-10-04T08:29:14.085Z,102294.98
2018-10-04T08:31:42.594Z,102294.63
2018-10-04T08:34:11.149Z,102294.13
2018-10-04T08:36:39.650Z,102299.59
2018-10-04T08:39:09.127Z,102299.94
2018-10-04T08:41:38.287Z,102296.00
2018-10-04T08:44:07.090Z,102299.39
2018-10-04T08:46:35.590Z,102301.68
2018-10-04T08:49:04.145Z,102293.22
2018-10-04T08:51:37.956Z,102296.73
2018-10-04T08:54:06.486Z,102295.12
2018-10-04T08:56:35.006Z,102290.26
2018-10-04T08:59:03.541Z,102295.58
2018-10-04T09:01:32.034Z,102298.73
2018-10-04T09:04:00.552Z,102293.84
2018-10-04T09:06:29.269Z,102292.15
2018-10-04T09:08:57.900Z,102290.45
2018-10-04T09:11:26.432Z,102289.09
2018-10-04T09:13:54.961Z,102293.69
2018-10-04T09:16:23.481Z,102293.02
2018-10-04T09:18:52.016Z,102293.88
2018-10-04T09:21:20.546Z,102297.50
2018-10-04T09:23:49.070Z,102291.86
2018-10-04T09:26:17.622Z,102294.08
2018-10-04T09:28:51.499Z,102294.75
2018-10-04T09:31:25.194Z,102296.25
2018-10-04T09:33:53.737Z,102292.38
2018-10-04T09:36:22.228Z,102293.33
2018-10-04T09:38:50.773Z,102288.91
2018-10-04T09:41:19.341Z,102291.70
2018-10-04T09:43:48.414Z,102290.52
2018-10-04T09:46:17.087Z,102292.45
2018-10-04T09:48:46.425Z,102295.30
2018-10-04T09:51:20.207Z,102297.23
2018-10-04T09:53:58.876Z,102293.69
2018-10-04T09:56:32.850Z,102296.38
2018-10-04T09:59:03.513Z,102289.52
2018-10-04T10:01:37.153Z,102296.45
2018-10-04T10:04:06.515Z,102295.81
2018-10-04T10:06:35.090Z,102295.97
2018-10-04T10:09:05.791Z,102292.13
2018-10-04T10:11:34.378Z,102300.36
2018-10-04T10:14:02.886Z,102297.45
2018-10-04T10:16:31.452Z,102300.61
2018-10-04T10:18:59.971Z,102296.02
2018-10-04T10:21:28.493Z,102293.11
2018-10-04T10:23:57.065Z,102296.75
2018-10-04T10:26:25.602Z,102293.89
2018-10-04T10:28:54.122Z,102292.56
2018-10-04T10:31:22.663Z,102291.55
2018-10-04T10:33:51.189Z,102287.92
2018-10-04T10:36:19.723Z,102286.25
2018-10-04T10:38:48.226Z,102282.66
2018-10-04T10:41:16.761Z,102283.25
2018-10-04T10:43:45.272Z,102281.57
2018-10-04T10:46:13.812Z,102277.80
2018-10-04T10:48:42.359Z,102279.05
2018-10-04T10:51:10.896Z,102277.34
2018-10-04T10:53:39.420Z,102269.91
2018-10-04T10:56:07.978Z,102278.66
2018-10-04T10:58:36.491Z,102265.30
2018-10-04T11:01:05.074Z,102271.16
2018-10-04T11:03:33.567Z,102261.27
2018-10-04T11:06:02.100Z,102258.55
2018-10-04T11:08:30.614Z,102255.48
2018-10-04T11:10:59.146Z,102259.72
2018-10-04T11:13:27.662Z,102260.13
2018-10-04T11:15:56.210Z,102256.02
2018-10-04T11:18:24.811Z,102258.65
2018-10-04T11:20:53.336Z,102250.25
2018-10-04T11:23:21.877Z,102255.38
2018-10-04T11:25:50.404Z,102260.52
2018-10-04T11:28:18.909Z,102262.84
2018-10-04T11:30:47.421Z,102265.44
2018-10-04T11:33:16.033Z,102267.61
2018-10-04T11:35:44.516Z,102269.52
2018-10-04T11:38:13.070Z,102269.66
2018-10-04T11:40:41.640Z,102266.77
2018-10-04T11:43:11.982Z,102267.76
2018-10-04T11:45:41.741Z,102271.83
2018-10-04T11:48:13.266Z,102270.59
2018-10-04T11:50:41.790Z,102269.88
2018-10-04T11:53:10.305Z,102272.70
2018-10-04T11:55:38.851Z,102273.80
2018-10-04T11:58:07.368Z,102268.23
2018-10-04T12:00:35.950Z,102266.15
2018-10-04T12:03:04.475Z,102268.97
2018-10-04T12:05:33.061Z,102266.28
2018-10-04T12:08:01.572Z,102263.22
2018-10-04T12:10:30.091Z,102261.49
2018-10-04T12:12:58.708Z,102261.63
2018-10-04T12:15:27.145Z,102267.66
2018-10-04T12:17:55.661Z,102258.33
2018-10-04T12:20:24.175Z,102261.83
2018-10-04T12:22:52.789Z,102256.28
2018-10-04T12:25:21.313Z,102258.06
2018-10-04T12:27:49.856Z,102256.91
2018-10-04T12:30:18.362Z,102253.95
2018-10-04T12:32:46.906Z,102257.84
2018-10-04T12:35:15.433Z,102254.58
2018-10-04T12:37:43.961Z,102259.12
2018-10-04T12:40:12.465Z,102260.36
2018-10-04T12:42:40.995Z,102258.36
2018-10-04T12:45:09.506Z,102259.38
2018-10-04T12:47:38.012Z,102258.84
2018-10-04T12:50:07.390Z,102259.89
2018-10-04T12:52:36.028Z,102263.36
2018-10-04T12:55:04.545Z,102260.47
2018-10-04T12:57:33.070Z,102259.83
2018-10-04T13:00:01.571Z,102259.30
2018-10-04T13:02:30.093Z,102257.78
2018-10-04T13:04:58.595Z,102254.92
2018-10-04T13:07:27.119Z,102250.66
2018-10-04T13:09:55.625Z,102247.37
2018-10-04T13:12:24.153Z,102250.91
2018-10-04T13:14:52.654Z,102249.36
2018-10-04T13:17:21.209Z,102241.95
2018-10-04T13:19:49.747Z,102246.47
2018-10-04T13:22:18.362Z,102249.82
2018-10-04T13:24:46.852Z,102240.93
2018-10-04T13:27:15.404Z,102245.77
2018-10-04T13:29:43.923Z,102235.80
2018-10-04T13:32:12.464Z,102236.77
2018-10-04T13:34:40.983Z,102236.00
2018-10-04T13:37:09.502Z,102238.91
2018-10-04T13:39:38.010Z,102230.31
2018-10-04T13:42:06.537Z,102228.12
2018-10-04T13:44:35.041Z,102228.00
2018-10-04T13:47:03.568Z,102228.00
2018-10-04T13:49:32.075Z,102224.97
2018-10-04T13:52:00.674Z,102223.25
2018-10-04T13:54:29.181Z,102222.94
2018-10-04T13:56:57.763Z,102225.38
2018-10-04T13:59:26.354Z,102229.91
2018-10-04T14:01:54.811Z,102217.30
2018-10-04T14:04:23.319Z,102221.42
2018-10-04T14:06:51.869Z,102218.23
2018-10-04T14:09:20.416Z,102218.41
2018-10-04T14:11:48.908Z,102212.00
2018-10-04T14:14:17.435Z,102213.06
2018-10-04T14:16:45.985Z,102214.13
2018-10-04T14:19:14.598Z,102211.77
2018-10-04T14:21:43.064Z,102210.63
2018-10-04T14:24:11.573Z,102201.16
2018-10-04T14:26:40.068Z,102203.02
2018-10-04T14:29:08.631Z,102201.66
2018-10-04T14:31:37.142Z,102204.94
2018-10-04T14:34:05.774Z,102203.87
2018-10-04T14:36:34.270Z,102206.37
2018-10-04T14:39:02.865Z,102206.89
2018-10-04T14:41:31.378Z,102210.05
2018-10-04T14:44:06.566Z,102207.70
2018-10-04T14:46:35.063Z,102195.74
2018-10-04T14:49:03.587Z,102196.99
2018-10-04T14:51:32.171Z,102196.23
2018-10-04T14:54:00.707Z,102195.97
2018-10-04T14:56:29.201Z,102201.38
2018-10-04T14:58:57.726Z,102200.84
2018-10-04T15:01:26.242Z,102196.90
2018-10-04T15:03:54.788Z,102195.66
2018-10-04T15:06:23.535Z,102199.91
2018-10-04T15:08:52.066Z,102196.63
2018-10-04T15:11:20.667Z,102190.29
2018-10-04T15:13:49.197Z,102192.64
2018-10-04T15:16:17.711Z,102183.45
2018-10-04T15:18:46.228Z,102191.30
2018-10-04T15:21:14.723Z,102186.02
2018-10-04T15:23:43.540Z,102184.83
2018-10-04T15:26:12.046Z,102180.06
2018-10-04T15:28:40.575Z,102178.96
2018-10-04T15:31:15.689Z,102174.92
2018-10-04T15:33:44.225Z,102167.99
2018-10-04T15:36:12.745Z,102165.01
2018-10-04T15:38:41.277Z,102164.34
2018-10-04T15:41:09.785Z,102162.21
2018-10-04T15:43:38.306Z,102160.70
2018-10-04T15:46:06.834Z,102156.13
2018-10-04T15:48:35.357Z,102164.47
2018-10-04T15:51:03.854Z,102164.02
2018-10-04T15:53:32.383Z,102168.77
2018-10-04T15:56:00.879Z,102170.92
2018-10-04T15:58:29.404Z,102166.70
2018-10-04T16:00:57.907Z,102171.75
2018-10-04T16:03:26.433Z,102165.13
2018-10-04T16:05:54.933Z,102164.05
2018-10-04T16:08:23.469Z,102173.72
2018-10-04T16:10:52.003Z,102169.88
2018-10-04T16:13:20.521Z,102172.15
2018-10-04T16:15:51.113Z,102171.70
2018-10-04T16:18:19.654Z,102167.96
2018-10-04T16:20:48.181Z,102166.13
2018-10-04T16:23:16.685Z,102165.49
2018-10-04T16:25:45.498Z,102168.11
2018-10-04T16:28:14.070Z,102174.84
2018-10-04T16:30:42.628Z,102172.83
2018-10-04T16:33:11.161Z,102176.81
2018-10-04T16:35:39.691Z,102174.66
2018-10-04T16:38:08.237Z,102174.20
2018-10-04T16:40:36.763Z,102168.25
2018-10-04T16:43:05.270Z,102160.70
2018-10-04T16:45:33.819Z,102164.20
2018-10-04T16:48:02.305Z,102174.84
2018-10-04T16:50:30.829Z,102179.23
2018-10-04T16:52:59.323Z,102173.80
2018-10-04T16:55:27.849Z,102178.00
2018-10-04T16:57:56.354Z,102174.43
2018-10-04T17:00:24.878Z,102182.73
2018-10-04T17:02:53.391Z,102179.00
2018-10-04T17:05:21.930Z,102176.78
2018-10-04T17:07:50.438Z,102175.94
2018-10-04T17:10:18.966Z,102180.91
2018-10-04T17:12:47.466Z,102177.83
2018-10-04T17:15:16.034Z,102185.23
2018-10-04T17:17:44.542Z,102175.62
2018-10-04T17:20:13.082Z,102168.75
2018-10-04T17:22:41.560Z,102176.67
2018-10-04T17:25:10.086Z,102175.62
2018-10-04T17:27:38.569Z,102177.83
2018-10-04T17:30:07.511Z,102180.05
2018-10-04T17:32:36.031Z,102170.30
2018-10-04T17:35:04.586Z,102173.25
2018-10-04T17:37:33.107Z,102176.06
2018-10-04T17:40:01.646Z,102176.77
2018-10-04T17:42:30.145Z,102184.36
2018-10-04T17:44:58.722Z,102180.41
2018-10-04T17:47:27.291Z,102188.48
2018-10-04T17:49:55.807Z,102186.32
2018-10-04T17:52:24.304Z,102189.45
2018-10-04T17:54:52.844Z,102180.85
2018-10-04T17:57:21.461Z,102183.11
2018-10-04T17:59:49.993Z,102183.95
2018-10-04T18:02:18.507Z,102185.97
2018-10-04T18:04:47.038Z,102185.44
2018-10-04T18:07:15.544Z,102186.17
2018-10-04T18:09:44.073Z,102190.82
2018-10-04T18:12:12.590Z,102186.70
2018-10-04T18:14:41.119Z,102184.97
2018-10-04T18:17:09.636Z,102187.40
2018-10-04T18:19:38.187Z,102187.72
2018-10-04T18:22:06.853Z,102189.97
2018-10-04T18:24:35.356Z,102188.25
2018-10-04T18:27:03.894Z,102185.50
2018-10-04T18:29:32.393Z,102181.91
2018-10-04T18:32:00.930Z,102182.11
2018-10-04T18:34:29.465Z,102180.73
2018-10-04T18:36:57.990Z,102181.44
2018-10-04T18:39:26.489Z,102181.65
2018-10-04T18:41:55.020Z,102180.80
2018-10-04T18:44:23.522Z,102182.34
2018-10-04T18:46:52.053Z,102178.55
2018-10-04T18:49:20.561Z,102171.68
2018-10-04T18:51:55.886Z,102172.20
2018-10-04T18:54:24.391Z,102172.41
2018-10-04T18:56:52.939Z,102166.08
2018-10-04T18:59:21.432Z,102174.63
2018-10-04T19:01:49.961Z,102170.84
2018-10-04T19:04:18.452Z,102171.89
2018-10-04T19:06:47.000Z,102168.09
2018-10-04T19:09:15.512Z,102170.84
2018-10-04T19:11:44.055Z,102175.80
2018-10-04T19:14:12.582Z,102173.58
2018-10-04T19:16:41.120Z,102171.89
2018-10-04T19:19:09.689Z,102178.43
2018-10-04T19:21:38.246Z,102179.45
2018-10-04T19:24:06.760Z,102171.42
2018-10-04T19:26:35.291Z,102182.41
2018-10-04T19:29:03.857Z,102175.39
2018-10-04T19:31:32.389Z,102172.00
2018-10-04T19:34:00.927Z,102178.19
2018-10-04T19:36:29.466Z,102180.30
2018-10-04T19:38:57.975Z,102178.25
2018-10-04T19:41:26.519Z,102173.48
2018-10-04T19:43:55.007Z,102179.47
2018-10-04T19:46:23.547Z,102172.97
2018-10-04T19:48:52.041Z,102176.73
2018-10-04T19:51:20.583Z,102173.13
2018-10-04T19:53:49.079Z,102173.86
2018-10-04T19:56:17.718Z,102170.45
2018-10-04T19:58:46.253Z,102167.70
2018-10-04T20:01:14.799Z,102165.69
2018-10-04T20:03:43.430Z,102174.24
2018-10-04T20:06:11.887Z,102169.80
2018-10-04T20:08:40.393Z,102173.92
2018-10-04T20:11:09.189Z,102174.77
2018-10-04T20:13:37.689Z,102169.80
2018-10-04T20:16:06.289Z,102172.55
2018-10-04T20:18:34.811Z,102172.55
2018-10-04T20:21:03.344Z,102171.34
2018-10-04T20:23:31.885Z,102173.24
2018-10-04T20:26:00.386Z,102167.95
2018-10-04T20:28:28.906Z,102168.45
2018-10-04T20:30:57.414Z,102165.70
2018-10-04T20:33:25.976Z,102159.02
2018-10-04T20:35:54.474Z,102159.22
2018-10-04T20:38:23.002Z,102164.71
2018-10-04T20:40:51.509Z,102158.55
2018-10-04T20:43:20.063Z,102161.49
2018-10-04T20:45:48.574Z,102160.59
2018-10-04T20:48:17.106Z,102156.80
2018-10-04T20:50:45.624Z,102154.90
2018-10-04T20:53:14.187Z,102155.95
2018-10-04T20:55:42.733Z,102153.20
2018-10-04T20:58:11.245Z,102150.78
2018-10-04T21:00:39.765Z,102152.16
2018-10-04T21:03:08.298Z,102154.90
2018-10-04T21:05:36.808Z,102154.38
2018-10-04T21:08:05.348Z,102160.57
2018-10-04T21:10:33.846Z,102157.83
2018-10-04T21:13:02.366Z,102155.08
2018-10-04T21:15:30.877Z,102152.34
2018-10-04T21:17:59.417Z,102143.92
2018-10-04T21:20:27.921Z,102146.34
2018-10-04T21:22:56.515Z,102148.41
2018-10-04T21:25:25.214Z,102150.52
2018-10-04T21:27:53.743Z,102134.22
2018-10-04T21:30:22.241Z,102136.64
2018-10-04T21:32:50.998Z,102133.58
2018-10-04T21:35:19.552Z,102129.63
2018-10-04T21:37:48.100Z,102129.31
2018-10-04T21:40:16.603Z,102127.94
2018-10-04T21:42:45.139Z,102118.02
2018-10-04T21:45:13.695Z,102127.79
2018-10-04T21:47:42.210Z,102128.64
2018-10-04T21:50:10.719Z,102130.48
2018-10-04T21:52:39.234Z,102125.34
2018-10-04T21:55:07.809Z,102131.16
2018-10-04T21:57:36.325Z,102132.20
2018-10-04T22:00:05.311Z,102115.80
2018-10-04T22:02:33.809Z,102115.13
2018-10-04T22:05:02.338Z,102114.80
2018-10-04T22:07:30.851Z,102125.77
2018-10-04T22:09:59.383Z,102121.83
2018-10-04T22:12:27.889Z,102117.19
2018-10-04T22:14:56.401Z,102123.03
2018-10-04T22:17:24.929Z,102121.13
2018-10-04T22:19:53.454Z,102117.02
2018-10-04T22:22:21.957Z,102119.77
2018-10-04T22:24:50.488Z,102118.71
2018-10-04T22:27:19.005Z,102122.83
2018-10-04T22:29:47.541Z,102120.93
2018-10-04T22:32:16.041Z,102129.16
2018-10-04T22:34:44.597Z,102126.42
2018-10-04T22:37:13.116Z,102124.87
2018-10-04T22:39:41.641Z,102116.29
2018-10-04T22:42:10.135Z,102120.03
2018-10-04T22:44:38.679Z,102113.17
2018-10-04T22:47:07.191Z,102102.02
2018-10-04T22:49:35.701Z,102104.23
2018-10-04T22:52:04.311Z,102102.55
2018-10-04T22:54:32.822Z,102104.41
2018-10-04T22:57:01.339Z,102103.04
2018-10-04T22:59:29.864Z,102105.78
2018-10-04T23:01:58.401Z,102106.14
2018-10-04T23:04:27.062Z,102098.08
2018-10-04T23:06:55.593Z,102095.69
2018-10-04T23:09:24.115Z,102096.53
2018-10-04T23:11:52.644Z,102092.94
2018-10-04T23:14:21.137Z,102094.48
2018-10-04T23:16:49.669Z,102097.76
2018-10-04T23:19:18.165Z,102099.97
2018-10-04T23:21:46.708Z,102101.49
2018-10-04T23:24:15.217Z,102101.29
2018-10-04T23:26:43.738Z,102092.04
2018-10-04T23:29:12.241Z,102088.94
2018-10-04T23:31:40.762Z,102092.73
2018-10-04T23:34:09.283Z,102090.69
2018-10-04T23:36:37.820Z,102089.00
2018-10-04T23:39:08.746Z,102091.10
2018-10-04T23:41:37.385Z,102096.23
2018-10-04T23:44:06.007Z,102096.44
2018-10-04T23:46:34.549Z,102102.68
2018-10-04T23:49:03.066Z,102101.56
2018-10-04T23:51:31.683Z,102099.57
2018-10-04T23:54:00.250Z,102095.66
2018-10-04T23:56:28.781Z,102097.53
2018-10-04T23:58:57.273Z,102098.58
